Time;durP1;ratioP1;P1;durP2;ratioP2;P2;SDS_P1;SDS_P2;PMS_P1;PMS_P2;Temp;Humidity;BMP_temperature;BMP_pressure;BME280_temperature;BME280_humidity;BME280_pressure;Samples;Min_cycle;Max_cycle;Signal;HPM_P1;HPM_P2
2023/06/09 00:00:38;;;;;;;;;;;;;;;18.28;51.26;101380.88;5114394;28;19916;-75
2023/06/09 00:03:05;;;;;;;;;;;;;;;18.24;51.97;101384.63;5114397;28;20238;-75
2023/06/09 00:05:32;;;;;;;;;;;;;;;18.20;52.14;101385.72;5114229;28;19927;-75
2023/06/09 00:07:58;;;;;;;;;;;;;;;18.14;51.56;101376.13;5112758;28;19923;-75
2023/06/09 00:10:24;;;;;;;;;;;;;;;18.08;50.97;101378.25;5114292;28;19920;-75
2023/06/09 00:12:49;;;;;;;;;;;;;;;18.04;50.66;101375.69;5113895;28;20044;-75
2023/06/09 00:15:15;;;;;;;;;;;;;;;18.03;51.86;101378.44;5114048;28;20026;-75
2023/06/09 00:17:41;;;;;;;;;;;;;;;18.01;51.35;101383.00;5113774;28;19926;-75
2023/06/09 00:20:08;;;;;;;;;;;;;;;17.96;51.13;101375.16;5113868;28;20006;-75
2023/06/09 00:22:34;;;;;;;;;;;;;;;17.94;50.87;101381.53;5113999;28;19924;-75
2023/06/09 00:25:00;;;;;;;;;;;;;;;17.90;51.82;101380.78;5113875;28;19947;-75
2023/06/09 00:27:25;;;;;;;;;;;;;;;17.87;51.64;101380.03;5113903;28;20404;-75
2023/06/09 00:29:51;;;;;;;;;;;;;;;17.82;51.97;101381.09;5129114;27;19924;-75
2023/06/09 00:32:16;;;;;;;;;;;;;;;17.76;52.18;101373.31;5113492;28;19924;-75
2023/06/09 00:34:42;;;;;;;;;;;;;;;17.72;51.99;101374.38;5112275;28;19920;-75
2023/06/09 00:37:07;;;;;;;;;;;;;;;17.70;52.22;101375.38;5113629;28;19935;-75
2023/06/09 00:39:33;;;;;;;;;;;;;;;17.66;52.30;101382.69;5112492;28;19965;-75
2023/06/09 00:41:58;;;;;;;;;;;;;;;17.60;52.34;101374.91;5113564;28;20043;-75
2023/06/09 00:44:23;;;;;;;;;;;;;;;17.55;52.97;101375.09;5111752;28;19916;-75
2023/06/09 00:46:49;;;;;;;;;;;;;;;17.52;52.30;101364.53;5112270;28;20015;-75
2023/06/09 00:49:14;;;;;;;;;;;;;;;17.49;52.12;101372.69;5113334;28;19920;-75
2023/06/09 00:51:40;;;;;;;;;;;;;;;17.46;52.05;101369.25;5113636;28;19919;-75
2023/06/09 00:54:06;;;;;;;;;;;;;;;17.42;51.97;101377.44;5113484;28;20368;-75
2023/06/09 00:56:32;;;;;;;;;;;;;;;17.39;52.33;101364.19;5112132;28;19942;-75
2023/06/09 00:58:58;;;;;;;;;;;;;;;17.38;51.99;101362.44;5111855;28;19953;-75
2023/06/09 01:01:23;;;;;;;;;;;;;;;17.36;51.94;101368.81;5113277;28;20548;-75
2023/06/09 01:03:49;;;;;;;;;;;;;;;17.31;52.03;101363.63;5110648;28;20338;-75
2023/06/09 01:06:38;;;;;;;;;;;;;;;17.28;52.29;101369.09;5111674;28;19919;-75
2023/06/09 01:09:16;;;;;;;;;;;;;;;17.27;51.97;101370.03;5112953;28;19961;-75
2023/06/09 01:11:41;;;;;;;;;;;;;;;17.25;51.98;101365.69;5113223;28;19959;-75
2023/06/09 01:14:21;;;;;;;;;;;;;;;17.21;51.82;101359.59;5111543;28;20387;-75
2023/06/09 01:16:52;;;;;;;;;;;;;;;17.16;52.57;101365.13;5111831;28;19916;-75
2023/06/09 01:19:32;;;;;;;;;;;;;;;17.13;52.60;101356.34;5111490;28;20039;-75
2023/06/09 01:22:08;;;;;;;;;;;;;;;17.08;53.35;101367.22;5113075;28;19915;-75
2023/06/09 01:24:57;;;;;;;;;;;;;;;17.06;52.80;101362.88;5113082;28;19923;-75
2023/06/09 01:27:24;;;;;;;;;;;;;;;17.01;53.20;101356.84;5103065;28;19926;-75
2023/06/09 01:29:51;;;;;;;;;;;;;;;16.96;53.10;101365.06;5111348;28;19920;-75
2023/06/09 01:32:18;;;;;;;;;;;;;;;16.90;53.99;101357.28;5112732;28;19963;-75
2023/06/09 01:34:44;;;;;;;;;;;;;;;16.82;53.60;101351.38;5112745;28;19924;-75
2023/06/09 01:37:10;;;;;;;;;;;;;;;16.77;53.58;101356.88;5094021;28;19969;-75
2023/06/09 01:39:36;;;;;;;;;;;;;;;16.71;54.00;101357.09;5104756;28;19912;-75
2023/06/09 01:42:03;;;;;;;;;;;;;;;16.67;53.44;101356.38;5109743;28;19946;-75
2023/06/09 01:44:28;;;;;;;;;;;;;;;16.65;53.72;101354.69;5107930;28;19924;-75
2023/06/09 01:46:53;;;;;;;;;;;;;;;16.60;54.59;101354.00;5088793;28;19920;-75
2023/06/09 01:49:22;;;;;;;;;;;;;;;16.55;54.53;101349.69;5109617;28;19948;-75
2023/06/09 01:51:50;;;;;;;;;;;;;;;16.51;54.20;101356.06;5105148;28;19916;-75
2023/06/09 01:54:20;;;;;;;;;;;;;;;16.46;54.68;101346.50;5092700;28;20008;-75
2023/06/09 01:56:50;;;;;;;;;;;;;;;16.44;55.24;101349.22;5109517;28;20344;-75
2023/06/09 01:59:19;;;;;;;;;;;;;;;16.39;54.40;101347.66;5092602;28;20387;-75
2023/06/09 02:01:46;;;;;;;;;;;;;;;16.34;53.94;101346.03;5109700;28;19915;-75
2023/06/09 02:04:13;;;;;;;;;;;;;;;16.29;54.59;101341.78;5103021;28;19920;-75
2023/06/09 02:06:40;;;;;;;;;;;;;;;16.26;55.40;101349.91;5092363;28;20338;-75
2023/06/09 02:09:06;;;;;;;;;;;;;;;16.23;55.22;101342.88;5092300;28;20403;-75
2023/06/09 02:11:31;;;;;;;;;;;;;;;16.19;55.09;101337.72;5092377;28;19935;-75
2023/06/09 02:13:57;;;;;;;;;;;;;;;16.16;56.07;101340.50;5111233;28;20007;-75
2023/06/09 02:16:22;;;;;;;;;;;;;;;16.12;56.27;101332.63;5110717;28;19991;-75
2023/06/09 02:18:50;;;;;;;;;;;;;;;16.11;55.00;101338.88;5110013;28;19939;-75
2023/06/09 02:21:16;;;;;;;;;;;;;;;16.06;55.92;101335.50;5090193;28;19981;-75
2023/06/09 02:23:41;;;;;;;;;;;;;;;16.05;56.31;101325.75;5106700;28;19915;-75
2023/06/09 02:26:07;;;;;;;;;;;;;;;16.04;55.33;101332.00;5110289;28;19995;-75
2023/06/09 02:28:32;;;;;;;;;;;;;;;16.03;56.46;101330.28;5111545;28;19920;-75
2023/06/09 02:30:58;;;;;;;;;;;;;;;16.02;56.37;101333.88;5110012;28;20453;-75
2023/06/09 02:33:26;;;;;;;;;;;;;;;15.96;56.18;101331.41;5109845;28;19981;-75
2023/06/09 02:35:52;;;;;;;;;;;;;;;15.92;56.40;101332.44;5109820;28;19920;-75
2023/06/09 02:38:18;;;;;;;;;;;;;;;15.88;57.04;101334.38;5110135;28;19950;-75
2023/06/09 02:40:47;;;;;;;;;;;;;;;15.86;57.86;101330.00;5109465;28;19955;-75
2023/06/09 02:43:13;;;;;;;;;;;;;;;15.85;57.72;101325.59;5109990;28;19915;-75
2023/06/09 02:45:38;;;;;;;;;;;;;;;15.78;58.09;101338.31;5096203;28;19916;-75
2023/06/09 02:48:04;;;;;;;;;;;;;;;15.73;57.30;101334.94;5109736;28;20354;-75
2023/06/09 02:50:30;;;;;;;;;;;;;;;15.70;56.85;101327.00;5106293;28;20027;-75
2023/06/09 02:52:59;;;;;;;;;;;;;;;15.67;56.83;101340.44;5109846;28;19969;-75
2023/06/09 02:55:25;;;;;;;;;;;;;;;15.63;56.87;101339.69;5109929;28;19919;-75
2023/06/09 02:57:51;;;;;;;;;;;;;;;15.60;57.08;101333.56;5109677;28;19919;-75
2023/06/09 03:00:20;;;;;;;;;;;;;;;15.58;57.38;101332.75;5109840;28;19915;-75
2023/06/09 03:02:46;;;;;;;;;;;;;;;15.53;57.42;101335.59;5090133;28;20404;-75
2023/06/09 03:05:13;;;;;;;;;;;;;;;15.50;57.13;101338.34;5089581;28;19966;-75
2023/06/09 03:07:39;;;;;;;;;;;;;;;15.46;57.84;101339.41;5102580;28;19977;-75
2023/06/09 03:10:06;;;;;;;;;;;;;;;15.42;57.97;101335.06;5092545;28;19934;-75
2023/06/09 03:12:35;;;;;;;;;;;;;;;15.37;57.32;101343.25;5109897;28;20235;-75
2023/06/09 03:15:00;;;;;;;;;;;;;;;15.32;57.10;101339.00;5109553;28;19920;-75
2023/06/09 03:17:27;;;;;;;;;;;;;;;15.30;58.65;101325.69;5109590;28;19973;-75
2023/06/09 03:19:52;;;;;;;;;;;;;;;15.26;58.01;101326.72;5109895;28;19942;-75
2023/06/09 03:22:18;;;;;;;;;;;;;;;15.23;57.90;101334.81;5109580;28;20335;-75
2023/06/09 03:24:44;;;;;;;;;;;;;;;15.22;58.80;101339.28;5109621;28;19981;-75
2023/06/09 03:27:10;;;;;;;;;;;;;;;15.21;59.19;101344.69;5109691;28;19912;-74
2023/06/09 03:29:36;;;;;;;;;;;;;;;15.18;58.93;101345.66;5109154;28;19924;-75
2023/06/09 03:32:02;;;;;;;;;;;;;;;15.15;59.22;101339.53;5109803;28;20014;-75
2023/06/09 03:34:29;;;;;;;;;;;;;;;15.12;59.18;101345.84;5103419;28;19932;-75
2023/06/09 03:36:58;;;;;;;;;;;;;;;15.11;58.58;101343.22;5118774;28;19944;-75
2023/06/09 03:39:23;;;;;;;;;;;;;;;15.09;58.60;101342.44;5108067;28;19916;-75
2023/06/09 03:41:53;;;;;;;;;;;;;;;15.09;59.66;101339.75;5109232;28;20371;-75
2023/06/09 03:44:21;;;;;;;;;;;;;;;15.07;59.41;101337.13;5106630;28;19920;-75
2023/06/09 03:46:46;;;;;;;;;;;;;;;15.05;59.23;101342.50;5100087;28;20259;-75
2023/06/09 03:49:11;;;;;;;;;;;;;;;15.04;59.79;101350.56;5109228;28;19946;-75
2023/06/09 03:51:37;;;;;;;;;;;;;;;15.01;59.94;101343.53;5099210;28;19935;-75
2023/06/09 03:54:02;;;;;;;;;;;;;;;15.00;60.17;101354.25;5109493;28;19919;-74
2023/06/09 03:56:28;;;;;;;;;;;;;;;15.00;59.67;101354.25;5110945;28;19920;-74
2023/06/09 03:58:54;;;;;;;;;;;;;;;15.00;59.71;101363.13;5109359;28;19919;-74
2023/06/09 04:01:21;;;;;;;;;;;;;;;15.01;59.44;101364.00;5109423;28;19915;-75
2023/06/09 04:03:47;;;;;;;;;;;;;;;15.02;57.50;101358.63;5101098;28;19916;-75
2023/06/09 04:06:12;;;;;;;;;;;;;;;15.02;59.36;101360.41;5109383;28;19924;-75
2023/06/09 04:08:38;;;;;;;;;;;;;;;15.03;55.71;101359.47;5114303;28;19996;-75
2023/06/09 04:11:03;;;;;;;;;;;;;;;15.02;60.20;101360.41;5114617;28;19977;-74
2023/06/09 04:13:28;;;;;;;;;;;;;;;15.02;59.94;101363.94;5115265;28;19915;-74
2023/06/09 04:15:55;;;;;;;;;;;;;;;15.02;58.60;101361.28;5113932;28;19923;-75
2023/06/09 04:18:20;;;;;;;;;;;;;;;15.01;58.54;101356.88;5113661;28;19926;-75
2023/06/09 04:20:46;;;;;;;;;;;;;;;15.00;58.67;101367.59;5113452;28;19931;-75
2023/06/09 04:23:12;;;;;;;;;;;;;;;14.98;58.53;101364.09;5093106;28;19916;-75
2023/06/09 04:25:41;;;;;;;;;;;;;;;14.97;60.55;101360.56;5110423;28;20033;-75
2023/06/09 04:28:14;;;;;;;;;;;;;;;14.98;59.92;101372.94;5096820;28;19927;-75
2023/06/09 04:30:40;;;;;;;;;;;;;;;14.98;61.26;101364.94;5112400;28;19920;-75
2023/06/09 04:33:09;;;;;;;;;;;;;;;15.00;61.42;101370.25;5112689;28;19919;-75
2023/06/09 04:35:36;;;;;;;;;;;;;;;15.00;60.43;101376.44;5112108;28;19943;-75
2023/06/09 04:38:03;;;;;;;;;;;;;;;15.02;61.73;101371.94;5112569;28;20010;-75
2023/06/09 04:40:29;;;;;;;;;;;;;;;15.04;58.90;101374.56;5106913;28;20002;-75
2023/06/09 04:42:57;;;;;;;;;;;;;;;15.02;58.34;101363.94;5112298;28;20006;-75
2023/06/09 04:45:34;;;;;;;;;;;;;;;15.04;58.25;101377.25;5108149;28;20062;-75
2023/06/09 04:48:05;;;;;;;;;;;;;;;15.04;61.62;101370.09;5112190;28;19922;-75
2023/06/09 04:50:33;;;;;;;;;;;;;;;15.07;61.86;101378.94;5108596;28;20008;-75
2023/06/09 04:53:03;;;;;;;;;;;;;;;15.08;60.83;101375.34;5112169;28;19961;-75
2023/06/09 04:55:30;;;;;;;;;;;;;;;15.12;60.54;101380.53;5112420;28;19938;-75
2023/06/09 04:57:56;;;;;;;;;;;;;;;15.17;60.01;101378.59;5112125;28;19930;-75
2023/06/09 05:00:22;;;;;;;;;;;;;;;15.23;61.55;101380.16;5112037;28;20362;-75
2023/06/09 05:02:49;;;;;;;;;;;;;;;15.29;61.02;101379.13;5109486;28;20343;-75
2023/06/09 05:05:15;;;;;;;;;;;;;;;15.37;60.80;101385.06;5111826;28;19968;-75
2023/06/09 05:07:41;;;;;;;;;;;;;;;15.45;60.32;101380.34;5111927;28;19920;-72
2023/06/09 05:10:08;;;;;;;;;;;;;;;15.51;61.06;101379.28;5107315;28;19924;-72
2023/06/09 05:12:33;;;;;;;;;;;;;;;15.57;60.24;101382.59;5094979;28;19955;-72
2023/06/09 05:14:59;;;;;;;;;;;;;;;15.65;59.66;101387.66;5094879;28;19955;-72
2023/06/09 05:17:25;;;;;;;;;;;;;;;15.71;58.67;101378.63;5095095;28;19980;-72
2023/06/09 05:19:51;;;;;;;;;;;;;;;15.77;60.38;101376.59;5093873;28;19927;-72
2023/06/09 05:22:16;;;;;;;;;;;;;;;15.86;59.87;101383.44;5113138;28;19926;-72
2023/06/09 05:24:41;;;;;;;;;;;;;;;15.95;60.33;101376.88;5111811;28;19944;-72
2023/06/09 05:27:07;;;;;;;;;;;;;;;16.03;61.06;101377.50;5111621;28;19930;-72
2023/06/09 05:29:33;;;;;;;;;;;;;;;16.10;61.14;101374.53;5111370;28;19931;-72
2023/06/09 05:31:58;;;;;;;;;;;;;;;16.19;62.63;101383.13;5111515;28;20414;-72
2023/06/09 05:34:24;;;;;;;;;;;;;;;16.25;61.04;101375.78;5111213;28;19979;-72
2023/06/09 05:36:49;;;;;;;;;;;;;;;16.30;59.60;101378.28;5111261;28;19932;-72
2023/06/09 05:39:15;;;;;;;;;;;;;;;16.38;61.59;101380.66;5105419;28;19962;-72
2023/06/09 05:41:41;;;;;;;;;;;;;;;16.43;58.82;101376.03;5112446;28;19923;-73
2023/06/09 05:44:06;;;;;;;;;;;;;;;16.49;60.83;101378.44;5110275;28;20283;-73
2023/06/09 05:46:32;;;;;;;;;;;;;;;16.55;60.49;101379.09;5101513;28;19939;-73
2023/06/09 05:48:57;;;;;;;;;;;;;;;16.64;61.10;101383.22;5110694;28;19965;-73
2023/06/09 05:51:23;;;;;;;;;;;;;;;16.72;59.96;101375.78;5101837;28;19960;-73
2023/06/09 05:53:48;;;;;;;;;;;;;;;16.82;58.67;101379.00;5111068;28;20014;-73
2023/06/09 05:56:16;;;;;;;;;;;;;;;16.87;58.73;101371.66;5112371;28;20030;-73
2023/06/09 05:58:44;;;;;;;;;;;;;;;16.98;61.51;101373.91;5112170;28;20013;-73
2023/06/09 06:01:10;;;;;;;;;;;;;;;17.04;57.68;101376.34;5112216;28;19980;-73
2023/06/09 06:03:36;;;;;;;;;;;;;;;17.13;58.16;101378.63;5104441;28;20336;-73
2023/06/09 06:06:03;;;;;;;;;;;;;;;17.23;59.39;101383.59;5112620;28;20010;-73
2023/06/09 06:08:28;;;;;;;;;;;;;;;17.31;56.94;101382.38;5112550;28;20023;-73
2023/06/09 06:10:54;;;;;;;;;;;;;;;17.39;59.60;101376.69;5111960;28;20006;-73
2023/06/09 06:13:19;;;;;;;;;;;;;;;17.49;57.76;101374.50;5112505;28;20044;-74
2023/06/09 06:15:45;;;;;;;;;;;;;;;17.57;59.79;101367.88;5112065;28;20296;-73
2023/06/09 06:18:11;;;;;;;;;;;;;;;17.67;60.70;101381.75;5110848;28;19931;-73
2023/06/09 06:20:36;;;;;;;;;;;;;;;17.75;59.30;101373.38;5111961;28;19919;-73
2023/06/09 06:23:02;;;;;;;;;;;;;;;17.84;60.65;101373.88;5110868;28;19919;-73
2023/06/09 06:25:28;;;;;;;;;;;;;;;17.95;60.97;101369.84;5111812;28;19958;-73
2023/06/09 06:27:55;;;;;;;;;;;;;;;18.05;60.79;101380.13;5111979;28;20351;-74
2023/06/09 06:30:20;;;;;;;;;;;;;;;18.16;60.27;101368.03;5111671;28;20041;-73
2023/06/09 06:32:50;;;;;;;;;;;;;;;18.26;60.78;101372.91;5111660;28;20014;-73
2023/06/09 06:35:25;;;;;;;;;;;;;;;18.39;60.40;101383.06;5111655;28;19968;-73
2023/06/09 06:37:50;;;;;;;;;;;;;;;18.52;59.60;101383.38;5095529;28;20014;-73
2023/06/09 06:40:16;;;;;;;;;;;;;;;18.61;57.72;101381.13;5106222;28;20401;-73
2023/06/09 06:42:41;;;;;;;;;;;;;;;18.72;59.16;101379.75;5105034;28;19934;-73
2023/06/09 06:45:14;;;;;;;;;;;;;;;18.81;59.44;101382.03;5104435;28;19926;-73
2023/06/09 06:47:40;;;;;;;;;;;;;;;18.93;58.21;101383.28;5099869;28;19919;-73
2023/06/09 06:50:06;;;;;;;;;;;;;;;19.04;58.31;101373.75;5107846;28;19920;-73
2023/06/09 06:52:33;;;;;;;;;;;;;;;19.18;59.48;101374.88;5099438;28;19926;-73
2023/06/09 06:54:58;;;;;;;;;;;;;;;19.28;58.32;101371.66;5095194;28;20297;-73
2023/06/09 06:57:24;;;;;;;;;;;;;;;19.41;58.80;101373.72;5106375;28;19942;-73
2023/06/09 06:59:50;;;;;;;;;;;;;;;19.52;58.35;101374.94;5105242;28;19950;-74
2023/06/09 07:02:15;;;;;;;;;;;;;;;19.63;58.82;101374.38;5099197;28;20006;-73
2023/06/09 07:04:40;;;;;;;;;;;;;;;19.73;57.38;101370.31;5098596;28;20425;-73
2023/06/09 07:07:06;;;;;;;;;;;;;;;19.80;57.29;101370.84;5103891;28;19920;-74
2023/06/09 07:09:31;;;;;;;;;;;;;;;19.88;58.05;101371.34;5109456;28;19924;-73
2023/06/09 07:11:56;;;;;;;;;;;;;;;19.97;58.18;101370.84;5107625;28;20342;-74
2023/06/09 07:14:22;;;;;;;;;;;;;;;20.09;57.09;101374.69;5109506;28;19919;-73
2023/06/09 07:16:47;;;;;;;;;;;;;;;20.23;57.40;101373.09;5110374;28;20258;-73
2023/06/09 07:19:13;;;;;;;;;;;;;;;20.37;56.28;101375.91;5106432;28;19924;-73
2023/06/09 07:21:38;;;;;;;;;;;;;;;20.46;55.33;101372.72;5110621;28;19940;-74
2023/06/09 07:24:04;;;;;;;;;;;;;;;20.55;57.05;101372.25;5105891;28;19920;-73
2023/06/09 07:26:29;;;;;;;;;;;;;;;20.65;55.14;101378.00;5092533;28;19924;-74
2023/06/09 07:28:55;;;;;;;;;;;;;;;20.77;56.77;101376.41;5095512;28;19938;-73
2023/06/09 07:31:20;;;;;;;;;;;;;;;20.83;55.56;101371.56;5075653;28;19939;-73
2023/06/09 07:33:46;;;;;;;;;;;;;;;20.96;55.05;101370.88;5095932;28;19916;-74
2023/06/09 07:36:11;;;;;;;;;;;;;;;21.08;55.53;101380.09;5081606;28;19927;-74
2023/06/09 07:38:43;;;;;;;;;;;;;;;21.21;55.58;101376.56;5098700;28;20030;-74
2023/06/09 07:41:08;;;;;;;;;;;;;;;21.38;55.80;101383.69;5097319;28;19919;-73
2023/06/09 07:43:33;;;;;;;;;;;;;;;21.54;53.68;101383.69;5103766;28;19928;-74
2023/06/09 07:45:59;;;;;;;;;;;;;;;21.67;53.55;101384.69;5111183;28;19919;-74
2023/06/09 07:48:25;;;;;;;;;;;;;;;21.79;54.35;101384.91;5096482;28;19936;-73
2023/06/09 07:50:51;;;;;;;;;;;;;;;21.91;54.89;101384.19;5108389;28;19938;-73
2023/06/09 07:53:17;;;;;;;;;;;;;;;22.06;54.38;101379.69;5105468;28;19938;-73
2023/06/09 07:55:43;;;;;;;;;;;;;;;22.19;54.17;101375.25;5113758;28;20346;-74
2023/06/09 07:58:08;;;;;;;;;;;;;;;22.36;53.34;101370.66;5095015;28;19927;-73
2023/06/09 08:00:33;;;;;;;;;;;;;;;22.43;53.17;101372.88;5092778;28;19920;-73
2023/06/09 08:03:01;;;;;;;;;;;;;;;22.50;53.52;101373.34;5101824;28;19920;-74
2023/06/09 08:05:26;;;;;;;;;;;;;;;22.60;53.65;101369.13;5092569;28;19920;-73
2023/06/09 08:07:52;;;;;;;;;;;;;;;22.78;52.72;101368.91;5095293;28;19977;-73
2023/06/09 08:10:17;;;;;;;;;;;;;;;22.92;52.79;101375.13;5097994;28;20383;-74
2023/06/09 08:12:43;;;;;;;;;;;;;;;23.04;52.94;101373.47;5099871;27;19927;-74
2023/06/09 08:15:08;;;;;;;;;;;;;;;23.16;52.48;101366.41;5105276;28;20616;-74
2023/06/09 08:17:33;;;;;;;;;;;;;;;23.26;52.13;101366.66;5089604;28;19945;-74
2023/06/09 08:19:59;;;;;;;;;;;;;;;23.45;52.33;101366.28;5107197;28;19928;-74
2023/06/09 08:22:25;;;;;;;;;;;;;;;23.59;51.64;101367.09;5102494;28;19928;-74
2023/06/09 08:24:50;;;;;;;;;;;;;;;23.73;51.26;101362.59;5106771;28;19920;-74
2023/06/09 08:27:16;;;;;;;;;;;;;;;23.85;51.18;101369.84;5106104;28;20408;-74
2023/06/09 08:29:41;;;;;;;;;;;;;;;23.96;50.72;101369.97;5111442;27;21741;-74
2023/06/09 08:32:07;;;;;;;;;;;;;;;24.07;50.07;101361.09;5112605;28;20020;-75
2023/06/09 08:34:32;;;;;;;;;;;;;;;24.14;50.41;101359.69;5108278;28;20539;-75
2023/06/09 08:36:58;;;;;;;;;;;;;;;24.22;49.95;101359.16;5110971;28;20577;-75
2023/06/09 08:39:23;;;;;;;;;;;;;;;24.31;49.55;101360.31;5106429;28;20365;-75
2023/06/09 08:41:51;;;;;;;;;;;;;;;24.39;49.74;101358.81;5105279;28;20443;-72
2023/06/09 08:44:16;;;;;;;;;;;;;;;24.52;49.78;101356.09;5104543;28;20342;-74
2023/06/09 08:46:42;;;;;;;;;;;;;;;24.65;49.34;101356.06;5099262;28;19923;-74
2023/06/09 08:49:08;;;;;;;;;;;;;;;24.76;49.34;101358.00;5105787;28;20346;-74
2023/06/09 08:51:37;;;;;;;;;;;;;;;24.87;49.18;101355.38;5101048;28;19945;-73
2023/06/09 08:54:03;;;;;;;;;;;;;;;24.99;48.61;101354.44;5111202;28;20216;-73
2023/06/09 08:56:28;;;;;;;;;;;;;;;25.07;48.79;101360.19;5101619;28;19989;-72
2023/06/09 08:58:53;;;;;;;;;;;;;;;25.16;48.47;101358.63;5107455;28;19912;-73
2023/06/09 09:01:19;;;;;;;;;;;;;;;25.21;48.34;101351.03;5105484;28;19923;-73
2023/06/09 09:03:46;;;;;;;;;;;;;;;25.32;48.12;101355.63;5110746;28;19932;-74
2023/06/09 09:06:13;;;;;;;;;;;;;;;25.46;48.10;101355.44;5105742;28;20324;-73
2023/06/09 09:08:39;;;;;;;;;;;;;;;25.61;47.71;101357.97;5098924;28;19953;-73
2023/06/09 09:11:04;;;;;;;;;;;;;;;25.63;46.89;101351.44;5108353;28;19919;-73
2023/06/09 09:13:30;;;;;;;;;;;;;;;25.70;47.37;101347.28;5112969;28;19920;-72
2023/06/09 09:15:59;;;;;;;;;;;;;;;25.87;47.45;101348.72;5105511;28;19927;-74
2023/06/09 09:18:29;;;;;;;;;;;;;;;25.94;46.78;101349.09;5111198;28;19916;-72
2023/06/09 09:20:54;;;;;;;;;;;;;;;25.99;46.97;101346.88;5102024;28;19916;-73
2023/06/09 09:23:27;;;;;;;;;;;;;;;26.04;46.39;101343.78;5109223;28;19942;-73
2023/06/09 09:25:53;;;;;;;;;;;;;;;26.08;47.13;101342.56;5105084;28;20286;-73
2023/06/09 09:28:18;;;;;;;;;;;;;;;26.20;46.23;101343.44;5093954;28;19920;-73
2023/06/09 09:30:48;;;;;;;;;;;;;;;26.29;45.50;101332.72;5108325;28;20259;-74
2023/06/09 09:33:18;;;;;;;;;;;;;;;26.42;45.86;101337.16;5098167;28;20236;-73
2023/06/09 09:35:45;;;;;;;;;;;;;;;26.49;46.01;101331.09;5104848;28;19920;-74
2023/06/09 09:38:12;;;;;;;;;;;;;;;26.65;45.70;101329.88;5107771;28;20000;-74
2023/06/09 09:40:41;;;;;;;;;;;;;;;26.81;45.51;101331.19;5105182;28;19964;-74
2023/06/09 09:43:08;;;;;;;;;;;;;;;26.95;45.28;101332.78;5105870;28;19934;-73
2023/06/09 09:45:37;;;;;;;;;;;;;;;27.06;44.71;101322.84;5106503;28;20010;-74
2023/06/09 09:48:10;;;;;;;;;;;;;;;27.19;44.70;101324.44;5108490;28;19920;-76
2023/06/09 09:50:36;;;;;;;;;;;;;;;27.43;44.16;101323.34;5107738;28;19980;-76
2023/06/09 09:53:11;;;;;;;;;;;;;;;27.62;44.19;101320.78;5104750;28;20559;-76
2023/06/09 09:55:37;;;;;;;;;;;;;;;27.66;42.68;101316.78;5106671;28;19927;-75
2023/06/09 09:58:08;;;;;;;;;;;;;;;27.80;43.77;101321.03;5103199;28;20015;-75
2023/06/09 10:00:35;;;;;;;;;;;;;;;28.04;42.79;101312.59;5090747;28;19967;-74
2023/06/09 10:03:03;;;;;;;;;;;;;;;28.24;42.36;101313.56;5108358;28;20395;-72
2023/06/09 10:05:30;;;;;;;;;;;;;;;28.40;41.60;101310.31;5109510;28;19988;-73
2023/06/09 10:07:56;;;;;;;;;;;;;;;28.43;42.33;101314.59;5107929;28;19920;-73
2023/06/09 10:10:21;;;;;;;;;;;;;;;28.46;41.68;101317.09;5107349;28;20338;-73
2023/06/09 10:12:47;;;;;;;;;;;;;;;28.62;41.22;101308.41;5110729;28;19980;-74
2023/06/09 10:15:13;;;;;;;;;;;;;;;28.74;40.80;101307.28;5109921;28;20332;-74
2023/06/09 10:17:41;;;;;;;;;;;;;;;28.84;40.64;101313.59;5103246;28;19939;-73
2023/06/09 10:20:08;;;;;;;;;;;;;;;28.98;38.99;101298.72;5102869;28;20004;-73
2023/06/09 10:22:34;;;;;;;;;;;;;;;29.11;40.38;101309.38;5105407;28;19916;-74
2023/06/09 10:25:00;;;;;;;;;;;;;;;29.21;40.36;101301.19;5109581;28;20338;-74
2023/06/09 10:27:26;;;;;;;;;;;;;;;29.35;38.79;101301.63;5111155;28;19920;-74
2023/06/09 10:29:51;;;;;;;;;;;;;;;29.50;39.57;101302.03;5107105;28;19924;-74
2023/06/09 10:32:19;;;;;;;;;;;;;;;29.63;38.70;101292.66;5105736;28;19927;-74
2023/06/09 10:34:47;;;;;;;;;;;;;;;29.62;36.81;101305.44;5104547;28;20342;-74
2023/06/09 10:37:12;;;;;;;;;;;;;;;29.69;38.42;101294.84;5110096;28;19916;-74
2023/06/09 10:40:01;;;;;;;;;;;;;;;29.83;39.40;101298.97;5111085;28;19954;-73
2023/06/09 10:42:32;;;;;;;;;;;;;;;29.87;36.38;101294.91;5110796;28;19931;-74
2023/06/09 10:45:09;;;;;;;;;;;;;;;29.94;37.58;101290.59;5107305;28;20007;-73
2023/06/09 10:47:40;;;;;;;;;;;;;;;30.05;37.00;101289.56;5099632;28;20003;-75
2023/06/09 10:50:06;;;;;;;;;;;;;;;30.13;38.53;101281.47;5108494;28;19972;-75
2023/06/09 10:52:45;;;;;;;;;;;;;;;30.16;37.90;101284.75;5107766;28;19912;-75
2023/06/09 10:55:15;;;;;;;;;;;;;;;30.25;37.78;101277.56;5104792;28;19936;-73
2023/06/09 10:57:41;;;;;;;;;;;;;;;30.29;36.92;101284.47;5106132;28;20014;-73
2023/06/09 11:00:11;;;;;;;;;;;;;;;30.37;37.29;101272.75;5104545;28;20278;-75
2023/06/09 11:02:37;;;;;;;;;;;;;;;30.57;37.19;101271.63;5107832;28;19915;-74
2023/06/09 11:05:04;;;;;;;;;;;;;;;30.77;36.07;101263.31;5102694;28;19920;-74
2023/06/09 11:07:31;;;;;;;;;;;;;;;30.96;35.65;101268.66;5107734;28;20006;-74
2023/06/09 11:09:56;;;;;;;;;;;;;;;31.14;34.05;101262.31;5105430;28;20351;-73
2023/06/09 11:12:25;;;;;;;;;;;;;;;31.21;32.92;101266.16;5110466;28;19934;-74
2023/06/09 11:14:56;;;;;;;;;;;;;;;31.31;34.28;101264.16;5109468;28;20268;-74
2023/06/09 11:17:28;;;;;;;;;;;;;;;31.41;34.86;101264.97;5112743;28;19969;-72
2023/06/09 11:20:06;;;;;;;;;;;;;;;31.44;33.47;101266.53;5115590;28;19916;-75
2023/06/09 11:22:32;;;;;;;;;;;;;;;31.51;31.77;101270.34;5115423;28;19915;-73
2023/06/09 11:24:58;;;;;;;;;;;;;;;31.43;34.62;101253.84;5113978;28;20399;-74
2023/06/09 11:27:24;;;;;;;;;;;;;;;31.41;34.28;101269.59;5113818;28;19964;-72
2023/06/09 11:30:07;;;;;;;;;;;;;;;31.48;34.34;101256.97;5115151;28;19927;-74
2023/06/09 11:32:43;;;;;;;;;;;;;;;31.60;34.71;101260.28;5115087;28;19915;-74
2023/06/09 11:35:09;;;;;;;;;;;;;;;31.78;33.83;101260.25;5108054;28;20353;-73
2023/06/09 11:37:36;;;;;;;;;;;;;;;31.68;32.16;101250.25;5109461;28;20022;-74
2023/06/09 11:40:04;;;;;;;;;;;;;;;31.77;33.54;101240.19;5110538;28;19916;-74
2023/06/09 11:42:31;;;;;;;;;;;;;;;31.92;33.18;101257.78;5109914;27;19924;-74
2023/06/09 11:44:59;;;;;;;;;;;;;;;32.18;33.34;101245.94;5101227;28;19939;-72
2023/06/09 11:47:25;;;;;;;;;;;;;;;32.20;32.71;101243.03;5112676;27;19948;-75
2023/06/09 11:50:00;;;;;;;;;;;;;;;32.05;32.44;101251.00;5111271;28;19927;-71
2023/06/09 11:52:26;;;;;;;;;;;;;;;32.08;32.14;101245.19;5102534;28;20402;-73
2023/06/09 11:54:51;;;;;;;;;;;;;;;32.23;32.88;101248.19;5098579;28;19927;-74
2023/06/09 11:57:16;;;;;;;;;;;;;;;32.36;32.80;101232.09;5104722;28;19932;-74
2023/06/09 11:59:42;;;;;;;;;;;;;;;32.62;32.82;101228.41;5107369;28;19916;-73
2023/06/09 12:02:08;;;;;;;;;;;;;;;32.89;32.09;101232.75;5110808;28;20019;-72
2023/06/09 12:04:38;;;;;;;;;;;;;;;32.95;31.07;101230.19;5103649;27;19920;-75
2023/06/09 12:07:03;;;;;;;;;;;;;;;33.01;31.20;101236.00;5099549;28;19920;-73
2023/06/09 12:09:29;;;;;;;;;;;;;;;32.83;31.10;101245.25;5104153;28;20249;-74
2023/06/09 12:11:54;;;;;;;;;;;;;;;32.77;30.11;101227.59;5110052;28;19920;-74
2023/06/09 12:14:20;;;;;;;;;;;;;;;32.94;31.75;101231.22;5115187;28;20389;-73
2023/06/09 12:16:46;;;;;;;;;;;;;;;33.11;28.92;101231.25;5115603;28;19919;-73
2023/06/09 12:19:11;;;;;;;;;;;;;;;33.24;30.97;101233.50;5112938;28;20270;-76
2023/06/09 12:21:37;;;;;;;;;;;;;;;33.32;31.23;101233.47;5103588;28;19985;-79
2023/06/09 12:24:03;;;;;;;;;;;;;;;33.46;29.42;101223.66;5099637;28;19993;-77
2023/06/09 12:26:42;;;;;;;;;;;;;;;33.55;29.22;101222.63;5097061;28;19958;-76
2023/06/09 12:29:08;;;;;;;;;;;;;;;33.68;29.83;101219.34;5100327;28;19928;-77
2023/06/09 12:31:33;;;;;;;;;;;;;;;33.54;28.88;101219.03;5102513;28;19916;-77
2023/06/09 12:34:00;;;;;;;;;;;;;;;33.25;29.89;101219.56;5107341;28;19920;-77